Time;durP1;ratioP1;P1;durP2;ratioP2;P2;SDS_P1;SDS_P2;PMS_P1;PMS_P2;Temp;Humidity;BMP_temperature;BMP_pressure;BME280_temperature;BME280_humidity;BME280_pressure;Samples;Min_cycle;Max_cycle;Signal;HPM_P1;HPM_P2
2023/01/10 00:01:25;;;;;;;12.73;12.13;;;7.90;99.90;;;;;;5050108;28;20419;-49
2023/01/10 00:03:51;;;;;;;12.87;12.27;;;7.90;99.90;;;;;;5049124;28;20440;-46
2023/01/10 00:06:17;;;;;;;12.67;12.07;;;7.80;99.90;;;;;;5048132;28;20194;-47
2023/01/10 00:08:43;;;;;;;13.03;12.33;;;7.80;99.90;;;;;;5049830;28;20424;-45
2023/01/10 00:13:56;;;;;;;12.60;12.00;;;7.80;99.90;;;;;;5049617;28;20684;-47
2023/01/10 00:16:22;;;;;;;12.93;12.23;;;7.80;99.90;;;;;;5047939;28;20547;-47
2023/01/10 00:18:48;;;;;;;13.27;12.57;;;7.80;99.90;;;;;;5047027;28;20482;-44
2023/01/10 00:21:14;;;;;;;12.60;12.00;;;7.80;99.90;;;;;;5047792;28;20412;-46
2023/01/10 00:23:42;;;;;;;13.67;12.90;;;7.90;99.90;;;;;;5046745;28;20463;-45
2023/01/10 00:26:08;;;;;;;12.57;11.97;;;7.90;99.90;;;;;;5049428;28;20507;-44
2023/01/10 00:28:34;;;;;;;12.73;12.13;;;7.80;99.90;;;;;;5036640;28;20437;-47
2023/01/10 00:31:05;;;;;;;12.73;12.03;;;7.90;99.90;;;;;;5048982;28;20467;-43
2023/01/10 00:33:31;;;;;;;12.67;12.07;;;7.80;99.90;;;;;;5045450;28;20488;-43
2023/01/10 00:35:57;;;;;;;12.77;12.17;;;7.90;99.90;;;;;;5047460;28;20447;-47
2023/01/10 00:38:23;;;;;;;12.50;11.90;;;7.90;99.90;;;;;;5046561;28;20447;-47
2023/01/10 00:40:49;;;;;;;12.97;12.27;;;7.90;99.90;;;;;;5048160;28;20478;-44
2023/01/10 00:46:00;;;;;;;13.00;12.30;;;7.80;99.90;;;;;;5044831;28;20478;-47
2023/01/10 00:48:25;;;;;;;13.20;12.30;;;7.80;99.90;;;;;;5047231;28;20436;-46
2023/01/10 00:50:51;;;;;;;13.03;12.33;;;7.90;99.90;;;;;;5047691;28;20503;-44
2023/01/10 00:53:16;;;;;;;13.10;12.40;;;7.90;99.90;;;;;;5048607;28;20650;-48
2023/01/10 00:55:43;;;;;;;13.27;12.47;;;7.80;99.90;;;;;;5047664;28;20193;-45
2023/01/10 00:58:10;;;;;;;13.10;12.40;;;7.70;99.90;;;;;;5047988;28;20178;-43
2023/01/10 01:00:37;;;;;;;13.13;12.10;;;7.70;99.90;;;;;;5048200;28;20436;-44
2023/01/10 01:03:03;;;;;;;13.07;12.20;;;7.70;99.90;;;;;;5048199;28;20428;-45
2023/01/10 01:05:29;;;;;;;12.77;11.97;;;7.80;99.90;;;;;;5047954;28;20419;-46
2023/01/10 01:07:55;;;;;;;13.13;12.43;;;7.80;99.90;;;;;;5046109;28;20432;-45
2023/01/10 01:10:26;;;;;;;12.90;12.30;;;7.80;99.90;;;;;;5048426;28;20233;-46
2023/01/10 01:12:57;;;;;;;13.60;12.90;;;7.90;99.90;;;;;;5047088;28;20189;-46
2023/01/10 01:15:23;;;;;;;13.87;13.10;;;7.80;99.90;;;;;;5049092;28;20459;-47
2023/01/10 01:17:49;;;;;;;12.80;12.10;;;7.80;99.90;;;;;;5046409;28;20565;-45
2023/01/10 01:20:15;;;;;;;12.43;11.80;;;7.80;99.90;;;;;;5030718;28;20616;-45
2023/01/10 01:22:41;;;;;;;12.83;12.13;;;7.70;99.90;;;;;;5047298;28;20189;-47
2023/01/10 01:25:07;;;;;;;12.83;12.13;;;7.70;99.90;;;;;;5048376;28;21248;-44
2023/01/10 01:27:33;;;;;;;13.00;12.13;;;7.70;99.90;;;;;;5045411;28;20703;-45
2023/01/10 01:30:00;;;;;;;13.77;12.87;;;7.70;99.90;;;;;;5046589;28;20570;-44
2023/01/10 01:32:26;;;;;;;13.60;12.87;;;7.70;99.90;;;;;;5046533;28;20778;-46
2023/01/10 01:34:51;;;;;;;13.40;12.70;;;7.60;99.90;;;;;;5047181;28;20435;-48
2023/01/10 01:37:18;;;;;;;13.40;12.60;;;7.70;99.90;;;;;;5040804;28;20502;-47
2023/01/10 01:39:45;;;;;;;12.67;12.07;;;7.60;99.90;;;;;;5045901;28;20185;-44
2023/01/10 01:42:31;;;;;;;13.33;12.63;;;7.70;99.90;;;;;;5052064;28;20432;-44
2023/01/10 01:45:15;;;;;;;13.40;12.60;;;7.70;99.90;;;;;;5050781;28;20914;-45
2023/01/10 01:48:06;;;;;;;13.50;12.80;;;7.60;99.90;;;;;;5051336;28;20905;-43
2023/01/10 01:50:38;;;;;;;13.07;12.47;;;7.70;99.90;;;;;;5046305;28;20483;-44
2023/01/10 01:53:17;;;;;;;13.33;12.53;;;7.60;99.90;;;;;;5050912;28;20921;-44
2023/01/10 01:55:44;;;;;;;13.30;12.63;;;7.60;99.90;;;;;;5038978;28;20424;-44
2023/01/10 01:58:16;;;;;;;12.80;12.20;;;7.60;99.90;;;;;;5051124;28;20511;-48
2023/01/10 02:00:42;;;;;;;13.33;12.33;;;7.60;99.90;;;;;;5052045;28;20504;-47
2023/01/10 02:03:09;;;;;;;13.50;12.70;;;7.60;99.90;;;;;;5051637;28;21013;-47
2023/01/10 02:05:36;;;;;;;13.20;12.50;;;7.60;99.90;;;;;;5050707;28;20489;-46
2023/01/10 02:08:02;;;;;;;13.33;12.63;;;7.60;99.90;;;;;;5050346;28;20474;-48
2023/01/10 02:10:52;;;;;;;13.70;12.90;;;7.60;99.90;;;;;;5050580;28;20460;-45
2023/01/10 02:13:22;;;;;;;13.60;12.80;;;7.60;99.90;;;;;;5041690;28;20435;-48
2023/01/10 02:15:48;;;;;;;13.40;12.60;;;7.60;99.90;;;;;;5051274;28;20432;-45
2023/01/10 02:18:14;;;;;;;14.20;13.30;;;7.60;99.90;;;;;;5048973;28;20906;-45
2023/01/10 02:21:06;;;;;;;13.80;13.10;;;7.60;99.90;;;;;;5047779;28;20440;-45
2023/01/10 02:23:54;;;;;;;13.30;12.60;;;7.60;99.90;;;;;;5040206;28;20240;-47
2023/01/10 02:26:41;;;;;;;13.83;13.03;;;7.50;99.90;;;;;;5047828;28;20442;-45
2023/01/10 02:29:42;;;;;;;14.03;13.23;;;7.50;99.90;;;;;;5049833;28;20983;-44
2023/01/10 02:32:15;;;;;;;13.97;13.17;;;7.60;99.90;;;;;;5051234;28;20447;-44
2023/01/10 02:35:18;;;;;;;14.77;13.97;;;7.60;99.90;;;;;;5051124;28;20443;-46
2023/01/10 02:38:15;;;;;;;13.83;13.13;;;7.60;99.90;;;;;;5050088;28;20461;-45
2023/01/10 02:40:44;;;;;;;13.67;12.97;;;7.60;99.90;;;;;;5049275;28;20481;-44
2023/01/10 02:43:14;;;;;;;14.50;13.50;;;7.60;99.90;;;;;;5051114;28;20432;-45
2023/01/10 02:46:09;;;;;;;13.67;12.87;;;7.60;99.90;;;;;;5048904;28;20447;-47
2023/01/10 02:48:34;;;;;;;14.00;13.30;;;7.60;99.90;;;;;;5050497;28;20438;-46
2023/01/10 02:51:21;;;;;;;13.77;12.97;;;7.50;99.90;;;;;;5050332;28;20484;-44
2023/01/10 02:54:12;;;;;;;13.50;12.80;;;7.50;99.90;;;;;;5050929;28;20177;-49
2023/01/10 02:56:49;;;;;;;14.00;13.20;;;7.50;99.90;;;;;;5042682;28;20444;-49
2023/01/10 02:59:43;;;;;;;14.23;13.33;;;7.50;99.90;;;;;;5048924;28;20515;-47
2023/01/10 03:02:33;;;;;;;14.93;14.03;;;7.40;99.90;;;;;;5049300;28;20487;-49
2023/01/10 03:05:14;;;;;;;14.80;13.80;;;7.30;99.90;;;;;;5048893;28;20881;-45
2023/01/10 03:07:53;;;;;;;14.77;13.80;;;7.20;99.90;;;;;;5039494;28;20436;-48
2023/01/10 03:10:49;;;;;;;14.23;13.30;;;7.20;99.90;;;;;;5050343;28;20468;-47
2023/01/10 03:13:39;;;;;;;15.37;14.37;;;7.10;99.90;;;;;;5035460;28;20519;-45
2023/01/10 03:16:09;;;;;;;15.15;14.07;;;7.00;99.90;;;;;;5050128;28;20450;-46
2023/01/10 03:19:08;;;;;;;14.20;13.20;;;6.90;99.90;;;;;;5048659;28;20292;-45
2023/01/10 03:21:36;;;;;;;15.13;14.23;;;6.90;99.90;;;;;;5048352;28;20467;-47
2023/01/10 03:24:11;;;;;;;14.90;14.00;;;6.90;99.90;;;;;;5049463;28;20483;-43
2023/01/10 03:26:52;;;;;;;15.07;14.07;;;6.90;99.90;;;;;;5050198;28;20432;-47
2023/01/10 03:29:24;;;;;;;15.20;14.23;;;6.90;99.90;;;;;;5049940;28;20458;-45
2023/01/10 03:31:56;;;;;;;15.63;14.67;;;6.90;99.90;;;;;;5048347;28;20476;-49
2023/01/10 03:34:23;;;;;;;16.23;15.23;;;6.90;99.90;;;;;;5037496;28;20506;-45
2023/01/10 03:37:08;;;;;;;15.73;14.80;;;6.90;99.90;;;;;;5049114;28;20428;-45
2023/01/10 03:39:40;;;;;;;16.52;15.10;;;6.90;99.90;;;;;;5040671;28;20436;-46
2023/01/10 03:44:42;;;;;;;16.23;15.23;;;6.80;99.90;;;;;;5048294;28;20193;-49
2023/01/10 03:45:34;;;;;;;15.80;14.90;;;6.80;99.90;;;;;;5046186;28;20472;-45
2023/01/10 03:48:04;;;;;;;16.43;15.40;;;6.80;99.90;;;;;;5046749;28;20523;-46
2023/01/10 03:50:30;;;;;;;16.00;15.00;;;6.70;99.90;;;;;;5048465;28;20568;-46
2023/01/10 03:52:56;;;;;;;16.30;15.30;;;6.70;99.90;;;;;;5049549;28;20784;-48
2023/01/10 03:55:26;;;;;;;16.07;15.07;;;6.70;99.90;;;;;;5046331;28;20436;-45
2023/01/10 03:57:51;;;;;;;15.87;14.67;;;6.80;99.90;;;;;;5039964;28;20451;-46
2023/01/10 04:00:17;;;;;;;16.30;15.20;;;6.80;99.90;;;;;;5038763;28;20797;-47
2023/01/10 04:02:43;;;;;;;15.82;14.82;;;6.80;99.90;;;;;;5022327;28;20189;-45
2023/01/10 04:05:09;;;;;;;16.40;15.40;;;6.80;99.90;;;;;;5039276;28;21121;-46
2023/01/10 04:07:35;;;;;;;15.63;14.60;;;6.80;99.90;;;;;;5039927;28;20436;-44
2023/01/10 04:10:03;;;;;;;15.80;14.65;;;6.90;99.90;;;;;;5041137;28;20421;-45
2023/01/10 04:12:29;;;;;;;15.93;14.73;;;7.00;99.90;;;;;;5040558;28;20186;-46
2023/01/10 04:14:54;;;;;;;15.60;14.60;;;7.00;99.90;;;;;;5022321;28;20209;-46
2023/01/10 04:17:20;;;;;;;15.50;13.97;;;7.00;99.90;;;;;;5040037;28;20308;-49
2023/01/10 04:19:46;;;;;;;15.40;14.40;;;7.00;99.90;;;;;;5022006;28;20201;-48
2023/01/10 04:22:12;;;;;;;14.90;14.00;;;6.90;99.90;;;;;;5040455;28;20190;-45
2023/01/10 04:24:38;;;;;;;15.52;14.52;;;7.00;99.90;;;;;;5039787;28;20236;-48
2023/01/10 04:27:04;;;;;;;14.80;13.80;;;6.90;99.90;;;;;;5040504;28;21269;-45
2023/01/10 04:29:29;;;;;;;14.03;13.03;;;7.00;99.90;;;;;;5040779;28;20503;-47
2023/01/10 04:31:55;;;;;;;14.70;13.60;;;7.00;99.90;;;;;;5040475;28;20817;-44
2023/01/10 04:34:21;;;;;;;15.80;14.67;;;7.00;99.90;;;;;;5040468;28;20178;-50
2023/01/10 04:36:48;;;;;;;14.90;13.90;;;7.10;99.90;;;;;;5040753;28;20239;-46
2023/01/10 04:39:14;;;;;;;14.43;13.53;;;7.10;99.90;;;;;;5040494;28;20236;-46
2023/01/10 04:41:40;;;;;;;14.77;13.60;;;7.10;99.90;;;;;;5040802;28;20420;-48
2023/01/10 04:44:06;;;;;;;15.20;14.17;;;7.10;99.90;;;;;;5039877;28;20440;-45
2023/01/10 04:46:32;;;;;;;14.80;13.70;;;7.10;99.90;;;;;;5040707;28;20420;-46
2023/01/10 04:48:58;;;;;;;14.80;13.70;;;7.10;99.90;;;;;;5040647;28;20774;-45
2023/01/10 04:51:24;;;;;;;14.97;13.90;;;7.10;99.90;;;;;;5040126;28;20480;-47
2023/01/10 04:53:50;;;;;;;14.53;13.50;;;7.20;99.90;;;;;;5039702;28;20416;-44
2023/01/10 04:56:18;;;;;;;14.87;13.90;;;7.10;99.90;;;;;;5040181;28;20427;-47
2023/01/10 04:58:44;;;;;;;15.13;13.63;;;7.20;99.90;;;;;;5040067;28;20173;-50
2023/01/10 05:01:23;;;;;;;14.30;13.10;;;7.10;99.90;;;;;;5040568;28;20785;-47
2023/01/10 05:03:51;;;;;;;14.30;13.37;;;7.10;99.90;;;;;;5039823;28;20937;-47
2023/01/10 05:06:17;;;;;;;17.40;15.90;;;7.20;99.90;;;;;;5040438;28;20412;-46
2023/01/10 05:08:43;;;;;;;15.03;13.93;;;7.20;99.90;;;;;;5040011;28;20514;-47
2023/01/10 05:11:10;;;;;;;13.93;12.93;;;7.20;99.90;;;;;;5040331;28;20819;-46
2023/01/10 05:13:35;;;;;;;13.83;12.77;;;7.20;99.90;;;;;;5043446;28;20400;-47
2023/01/10 05:16:01;;;;;;;15.00;13.50;;;7.20;99.90;;;;;;5043641;28;20479;-48
2023/01/10 05:18:28;;;;;;;13.03;12.07;;;7.30;99.90;;;;;;5044118;28;20193;-47
2023/01/10 05:21:01;;;;;;;14.30;13.20;;;7.20;99.90;;;;;;5044129;28;20182;-45
2023/01/10 05:23:28;;;;;;;14.40;13.20;;;7.20;99.90;;;;;;5044275;28;20790;-49
2023/01/10 05:25:53;;;;;;;14.23;13.20;;;7.20;99.90;;;;;;5040462;28;20953;-45
2023/01/10 05:28:19;;;;;;;15.90;14.60;;;7.20;99.90;;;;;;5043770;28;20511;-45
2023/01/10 05:30:45;;;;;;;14.90;13.90;;;7.20;99.90;;;;;;5043853;28;20235;-49
2023/01/10 05:33:10;;;;;;;14.40;13.47;;;7.20;99.90;;;;;;5043827;28;20174;-45
2023/01/10 05:35:36;;;;;;;15.93;14.63;;;7.20;99.90;;;;;;5043454;28;20185;-45
2023/01/10 05:38:02;;;;;;;14.90;13.93;;;7.20;99.90;;;;;;5043789;28;20186;-44
2023/01/10 05:40:28;;;;;;;15.77;14.60;;;7.30;99.90;;;;;;5043681;28;20177;-44
2023/01/10 05:42:53;;;;;;;16.03;14.53;;;7.20;99.90;;;;;;5043668;28;20757;-46
2023/01/10 05:45:19;;;;;;;13.87;12.87;;;7.20;99.90;;;;;;5042688;28;20876;-49
2023/01/10 05:47:44;;;;;;;15.00;13.90;;;7.30;99.90;;;;;;5043647;28;20273;-51
2023/01/10 05:50:10;;;;;;;15.50;14.40;;;7.30;99.90;;;;;;5043269;28;20193;-49
2023/01/10 05:52:36;;;;;;;14.27;13.17;;;7.30;99.90;;;;;;5043787;28;20200;-48
2023/01/10 05:55:02;;;;;;;14.63;13.60;;;7.30;99.90;;;;;;5042660;28;20242;-44
2023/01/10 05:57:27;;;;;;;16.23;14.63;;;7.30;99.90;;;;;;5025264;28;21131;-49
2023/01/10 05:59:53;;;;;;;15.37;14.27;;;7.30;99.90;;;;;;5043494;28;20181;-48
2023/01/10 06:02:18;;;;;;;16.13;14.93;;;7.30;99.90;;;;;;5041628;28;20190;-46
2023/01/10 06:04:44;;;;;;;14.57;13.57;;;7.20;99.90;;;;;;5042878;28;20182;-46
2023/01/10 06:07:10;;;;;;;13.67;12.77;;;7.20;99.90;;;;;;5042867;28;20193;-44
2023/01/10 06:09:35;;;;;;;14.93;13.63;;;7.20;99.90;;;;;;5043366;28;20197;-51
2023/01/10 06:12:01;;;;;;;16.20;15.07;;;7.30;99.90;;;;;;5043223;28;21286;-47
2023/01/10 06:14:26;;;;;;;17.03;15.50;;;7.30;99.90;;;;;;5042532;28;20182;-47
2023/01/10 06:16:52;;;;;;;14.80;13.80;;;7.30;99.90;;;;;;5043036;28;20497;-48
2023/01/10 06:19:18;;;;;;;14.50;13.40;;;7.30;99.90;;;;;;5042900;28;20591;-46
2023/01/10 06:21:43;;;;;;;15.10;13.97;;;7.30;99.90;;;;;;5043160;28;20182;-46
2023/01/10 06:24:09;;;;;;;15.30;14.10;;;7.30;99.90;;;;;;5041899;28;20708;-45
2023/01/10 06:26:35;;;;;;;14.90;13.60;;;7.20;99.90;;;;;;5042826;28;20196;-44
2023/01/10 06:29:01;;;;;;;15.47;14.33;;;7.30;99.90;;;;;;5043018;28;21035;-47
2023/01/10 06:31:26;;;;;;;13.50;12.47;;;7.20;99.90;;;;;;5042895;28;20229;-47
2023/01/10 06:33:52;;;;;;;14.17;13.13;;;7.30;99.90;;;;;;5042369;28;20194;-48
2023/01/10 06:36:18;;;;;;;15.57;14.30;;;7.30;99.90;;;;;;5042867;28;20181;-46
2023/01/10 06:38:44;;;;;;;14.60;13.50;;;7.20;99.90;;;;;;5042758;28;20418;-45
2023/01/10 06:41:12;;;;;;;15.90;14.40;;;7.20;99.90;;;;;;5042639;28;20428;-47
2023/01/10 06:43:40;;;;;;;14.30;13.20;;;7.20;99.90;;;;;;5040577;28;20193;-44
2023/01/10 06:46:08;;;;;;;15.47;14.37;;;7.20;99.90;;;;;;5042136;28;20443;-46
2023/01/10 06:48:37;;;;;;;15.80;14.60;;;7.30;99.90;;;;;;5043003;28;20422;-46
2023/01/10 06:51:04;;;;;;;14.73;13.63;;;7.30;99.90;;;;;;5042700;28;20496;-44
2023/01/10 06:53:30;;;;;;;17.70;16.50;;;7.20;99.90;;;;;;5041737;28;20953;-46
2023/01/10 06:55:56;;;;;;;17.10;15.73;;;7.20;99.90;;;;;;5042418;28;20459;-48
2023/01/10 06:58:22;;;;;;;15.90;14.80;;;7.20;99.90;;;;;;5042042;28;20708;-46
2023/01/10 07:00:48;;;;;;;16.80;15.53;;;7.20;99.90;;;;;;5041902;28;20412;-47
2023/01/10 07:03:13;;;;;;;17.20;16.00;;;7.20;99.90;;;;;;5040687;28;20268;-46
2023/01/10 07:05:39;;;;;;;16.93;15.73;;;7.20;99.90;;;;;;5042285;28;20217;-52
2023/01/10 07:08:05;;;;;;;15.13;14.13;;;7.20;99.90;;;;;;5041897;28;20185;-44
2023/01/10 07:10:30;;;;;;;14.70;13.70;;;7.20;99.90;;;;;;5042208;28;20644;-44
2023/01/10 07:12:57;;;;;;;16.13;14.80;;;7.20;99.90;;;;;;5040918;28;21030;-46
2023/01/10 07:15:23;;;;;;;19.30;17.60;;;7.10;99.90;;;;;;5041997;28;20192;-45
2023/01/10 07:17:49;;;;;;;18.10;16.40;;;7.10;99.90;;;;;;5042116;28;20507;-46
2023/01/10 07:20:15;;;;;;;18.90;17.20;;;7.10;99.90;;;;;;5041722;28;20469;-43
2023/01/10 07:22:41;;;;;;;15.83;14.73;;;7.10;99.90;;;;;;5041128;28;20644;-46
2023/01/10 07:25:07;;;;;;;20.90;19.20;;;7.10;99.90;;;;;;5039302;28;20436;-46
2023/01/10 07:27:33;;;;;;;16.27;14.97;;;7.10;99.90;;;;;;5041130;28;20600;-49
2023/01/10 07:29:58;;;;;;;17.80;16.60;;;7.20;99.90;;;;;;5041679;28;20432;-46
2023/01/10 07:32:25;;;;;;;17.73;16.43;;;7.20;99.90;;;;;;5041544;28;20421;-45
2023/01/10 07:34:50;;;;;;;16.00;14.70;;;7.30;99.90;;;;;;5039397;28;20267;-46
2023/01/10 07:37:16;;;;;;;16.07;14.97;;;7.20;99.90;;;;;;5041495;28;20574;-47
2023/01/10 07:39:42;;;;;;;24.67;22.30;;;7.30;99.90;;;;;;5041336;28;20193;-46
2023/01/10 07:42:10;;;;;;;17.87;16.50;;;7.20;99.90;;;;;;5041625;28;20185;-46
2023/01/10 07:44:36;;;;;;;16.33;15.13;;;7.20;99.90;;;;;;5040704;28;20451;-48
2023/01/10 07:47:02;;;;;;;15.03;13.93;;;7.10;99.90;;;;;;5041349;28;21257;-46
2023/01/10 07:49:27;;;;;;;16.67;15.37;;;7.10;99.90;;;;;;5041440;28;20196;-48
2023/01/10 07:51:53;;;;;;;15.00;13.90;;;7.20;99.90;;;;;;5040886;28;20275;-47
2023/01/10 07:54:19;;;;;;;14.90;13.83;;;7.10;99.90;;;;;;5040689;28;20193;-46
2023/01/10 07:56:46;;;;;;;15.43;14.33;;;7.20;99.90;;;;;;5041177;28;20448;-45
2023/01/10 07:59:12;;;;;;;14.47;13.37;;;7.20;99.90;;;;;;5040937;28;21007;-45
2023/01/10 08:01:38;;;;;;;16.30;14.97;;;7.10;99.90;;;;;;5041182;28;20539;-49
2023/01/10 08:04:04;;;;;;;16.87;15.30;;;7.10;99.90;;;;;;5040314;28;20552;-51
2023/01/10 08:06:30;;;;;;;16.30;14.75;;;7.00;99.90;;;;;;5040457;28;21195;-48
2023/01/10 08:08:56;;;;;;;16.90;15.70;;;6.90;99.90;;;;;;5041094;28;20220;-48
2023/01/10 08:11:22;;;;;;;15.90;14.67;;;6.80;99.90;;;;;;5040664;28;20756;-44
2023/01/10 08:13:47;;;;;;;62.73;55.43;;;6.90;99.90;;;;;;5040153;28;20260;-47
2023/01/10 08:16:14;;;;;;;18.30;16.87;;;6.80;99.90;;;;;;5040797;28;20186;-49
2023/01/10 08:18:42;;;;;;;17.27;15.87;;;6.90;99.90;;;;;;5040941;28;20193;-50
2023/01/10 08:21:08;;;;;;;16.27;14.97;;;6.90;99.90;;;;;;5040954;28;20955;-46
2023/01/10 08:23:34;;;;;;;15.63;14.47;;;6.90;99.90;;;;;;5040022;28;20502;-51
2023/01/10 08:26:00;;;;;;;15.93;14.80;;;7.00;99.90;;;;;;5040781;28;20412;-45
2023/01/10 08:28:26;;;;;;;16.23;14.93;;;7.00;99.90;;;;;;5040590;28;20190;-44
2023/01/10 08:30:54;;;;;;;15.83;14.63;;;7.10;99.90;;;;;;5040414;28;20460;-45
2023/01/10 08:33:21;;;;;;;15.23;14.02;;;7.00;99.90;;;;;;5040022;28;21368;-51
2023/01/10 08:35:47;;;;;;;15.53;14.43;;;7.00;99.90;;;;;;5040704;28;20209;-48
2023/01/10 08:38:12;;;;;;;15.30;14.10;;;7.00;99.90;;;;;;5040717;28;20533;-46
2023/01/10 08:40:38;;;;;;;16.40;15.10;;;7.10;99.90;;;;;;5040518;28;20186;-49
2023/01/10 08:43:06;;;;;;;15.10;14.10;;;7.20;99.90;;;;;;5040195;28;20547;-45
2023/01/10 08:45:32;;;;;;;16.43;15.23;;;7.20;99.90;;;;;;5040002;28;20188;-44
2023/01/10 08:47:57;;;;;;;15.83;14.70;;;7.20;99.90;;;;;;5040415;28;20420;-46
2023/01/10 08:50:24;;;;;;;15.30;14.20;;;7.30;99.90;;;;;;5040209;28;20487;-47
2023/01/10 08:52:52;;;;;;;15.90;14.90;;;7.30;99.90;;;;;;5040634;28;20189;-47
2023/01/10 08:55:19;;;;;;;15.50;14.50;;;7.30;99.90;;;;;;5039128;28;20440;-49
2023/01/10 08:57:44;;;;;;;16.77;15.50;;;7.40;99.90;;;;;;5040493;28;20554;-45
2023/01/10 09:00:11;;;;;;;16.03;14.73;;;7.50;99.90;;;;;;5040009;28;20516;-49
2023/01/10 09:02:38;;;;;;;16.27;14.77;;;7.50;99.90;;;;;;5040273;28;20982;-49
2023/01/10 09:05:04;;;;;;;16.40;15.20;;;7.50;99.90;;;;;;5038956;28;21213;-45
2023/01/10 09:07:30;;;;;;;16.17;15.17;;;7.60;99.90;;;;;;5040445;28;20424;-44
2023/01/10 09:09:55;;;;;;;15.53;14.53;;;7.60;99.90;;;;;;5040299;28;20882;-46
2023/01/10 09:15:06;;;;;;;14.40;13.47;;;7.70;99.90;;;;;;5039469;28;20534;-46
2023/01/10 09:17:31;;;;;;;14.47;13.40;;;7.80;99.90;;;;;;5040068;28;20423;-46
2023/01/10 09:19:57;;;;;;;15.17;14.00;;;7.90;99.90;;;;;;5040050;28;20993;-47
2023/01/10 09:22:23;;;;;;;15.00;13.80;;;7.80;99.90;;;;;;5040048;28;20643;-48
2023/01/10 09:24:48;;;;;;;13.57;12.53;;;7.90;99.90;;;;;;5039488;28;20327;-45
2023/01/10 09:27:14;;;;;;;14.10;13.20;;;7.90;99.90;;;;;;5039957;28;20277;-48
2023/01/10 09:29:39;;;;;;;13.60;12.80;;;7.90;99.90;;;;;;5040048;28;20261;-43
2023/01/10 09:32:06;;;;;;;13.57;12.77;;;8.00;99.90;;;;;;5037947;28;20293;-47
2023/01/10 09:34:31;;;;;;;12.70;12.00;;;7.90;99.90;;;;;;5038849;28;20177;-45
2023/01/10 09:36:57;;;;;;;13.37;12.57;;;8.00;99.90;;;;;;5039871;28;21256;-50
2023/01/10 09:39:24;;;;;;;12.50;11.90;;;8.00;99.90;;;;;;5039706;28;20659;-44
2023/01/10 09:42:05;;;;;;;12.40;11.80;;;8.10;99.90;;;;;;5039201;28;20255;-47
2023/01/10 09:44:48;;;;;;;12.67;11.87;;;8.10;99.90;;;;;;5039760;28;20465;-46
2023/01/10 09:47:40;;;;;;;11.93;11.33;;;8.30;99.90;;;;;;5039652;28;20430;-50
2023/01/10 09:50:14;;;;;;;11.90;11.20;;;8.20;99.90;;;;;;5039900;28;20509;-50
2023/01/10 09:52:45;;;;;;;12.10;11.50;;;8.10;99.90;;;;;;5039115;28;20416;-47
2023/01/10 09:55:24;;;;;;;12.60;11.90;;;8.00;99.90;;;;;;5039874;28;20432;-44
2023/01/10 09:57:56;;;;;;;13.20;12.40;;;7.70;99.90;;;;;;5022652;28;20947;-46
2023/01/10 10:00:30;;;;;;;13.80;13.00;;;7.60;99.90;;;;;;5043691;28;20416;-49
2023/01/10 10:02:56;;;;;;;13.13;12.43;;;7.60;99.90;;;;;;5042294;28;20467;-47
2023/01/10 10:05:27;;;;;;;13.60;12.90;;;7.50;99.90;;;;;;5043166;28;20519;-44
2023/01/10 10:07:58;;;;;;;14.13;13.13;;;7.50;99.90;;;;;;5043128;28;20428;-46
2023/01/10 10:10:39;;;;;;;14.40;13.63;;;7.40;99.90;;;;;;5043097;28;20549;-45
2023/01/10 10:13:34;;;;;;;13.93;13.20;;;7.40;99.90;;;;;;5042401;28;21227;-45
2023/01/10 10:16:18;;;;;;;14.50;13.70;;;7.30;99.90;;;;;;5042728;28;20424;-46
2023/01/10 10:18:49;;;;;;;14.20;13.40;;;7.30;99.90;;;;;;5043207;28;20420;-47
2023/01/10 10:21:34;;;;;;;14.57;13.70;;;7.30;99.90;;;;;;5043011;28;20511;-45
2023/01/10 10:24:18;;;;;;;15.50;14.30;;;7.30;99.90;;;;;;5042159;28;20443;-47
2023/01/10 10:26:57;;;;;;;15.90;14.60;;;7.30;99.90;;;;;;5042638;28;20420;-46
2023/01/10 10:29:29;;;;;;;14.60;13.80;;;7.30;99.90;;;;;;5042839;28;20436;-44
2023/01/10 10:32:00;;;;;;;16.67;15.57;;;7.30;99.90;;;;;;5042527;28;20469;-48
2023/01/10 10:34:44;;;;;;;17.10;16.00;;;7.40;99.90;;;;;;5042265;28;20432;-47
2023/01/10 10:37:19;;;;;;;15.90;14.90;;;7.40;99.90;;;;;;5042463;28;20796;-45
2023/01/10 10:39:52;;;;;;;16.17;14.97;;;7.40;99.90;;;;;;5042689;28;20920;-45
2023/01/10 10:42:18;;;;;;;16.37;15.07;;;7.50;99.90;;;;;;5041645;28;20415;-48
2023/01/10 10:44:50;;;;;;;16.30;15.27;;;7.60;99.90;;;;;;5042401;28;20459;-51
2023/01/10 10:47:19;;;;;;;15.73;14.63;;;7.60;99.90;;;;;;5042264;28;20603;-48
2023/01/10 10:50:06;;;;;;;16.17;15.27;;;7.70;99.90;;;;;;5041612;28;21127;-47
2023/01/10 10:52:34;;;;;;;14.87;13.90;;;7.80;99.90;;;;;;5041273;28;21455;-47
2023/01/10 10:55:03;;;;;;;15.17;14.13;;;7.90;99.90;;;;;;5042019;28;20516;-47
2023/01/10 10:57:31;;;;;;;13.97;13.00;;;7.90;99.90;;;;;;5041902;28;20412;-49
2023/01/10 10:59:59;;;;;;;13.20;12.10;;;8.10;99.90;;;;;;5041132;28;20444;-46
2023/01/10 11:02:37;;;;;;;13.40;12.47;;;8.20;99.90;;;;;;5042581;28;20523;-43
2023/01/10 11:05:12;;;;;;;12.83;12.03;;;8.30;99.90;;;;;;5042276;28;20527;-47
2023/01/10 11:07:39;;;;;;;14.10;13.10;;;8.30;99.90;;;;;;5042283;28;20512;-47
2023/01/10 11:12:49;;;;;;;13.83;12.70;;;8.40;99.90;;;;;;5040677;28;20436;-45
2023/01/10 11:15:34;;;;;;;12.70;11.90;;;8.40;99.90;;;;;;5041475;28;21379;-50
2023/01/10 11:18:15;;;;;;;13.10;12.30;;;8.30;99.90;;;;;;5041803;28;20427;-46
2023/01/10 11:20:56;;;;;;;14.07;12.90;;;8.40;99.90;;;;;;5041931;28;20412;-47
2023/01/10 11:23:26;;;;;;;13.30;12.60;;;8.30;99.90;;;;;;5040853;28;20542;-45
2023/01/10 11:25:52;;;;;;;13.03;12.30;;;8.30;99.90;;;;;;5041652;28;20423;-46
2023/01/10 11:28:22;;;;;;;12.47;11.70;;;8.30;99.90;;;;;;5040078;28;20837;-48
2023/01/10 11:30:49;;;;;;;13.27;12.47;;;8.30;99.90;;;;;;5041439;28;20448;-47
2023/01/10 11:33:22;;;;;;;12.87;11.87;;;8.30;99.90;;;;;;5023919;28;20458;-46
2023/01/10 11:36:09;;;;;;;13.30;12.30;;;8.30;99.90;;;;;;5041320;28;20459;-49
2023/01/10 11:38:35;;;;;;;12.30;11.30;;;8.40;99.90;;;;;;5040444;28;20523;-50
2023/01/10 11:41:05;;;;;;;12.57;11.87;;;8.40;99.90;;;;;;5041770;28;20416;-45
2023/01/10 11:43:35;;;;;;;13.37;12.47;;;8.50;99.90;;;;;;5041368;28;20475;-46
2023/01/10 11:46:11;;;;;;;13.93;13.03;;;8.60;99.90;;;;;;5041728;28;20917;-45
2023/01/10 11:48:46;;;;;;;13.33;12.43;;;8.60;99.90;;;;;;5040360;28;20590;-50
2023/01/10 11:51:27;;;;;;;14.33;13.40;;;8.80;99.90;;;;;;5040976;28;20514;-44
2023/01/10 11:54:02;;;;;;;15.50;14.40;;;8.90;99.90;;;;;;5040891;28;20428;-47
2023/01/10 11:56:31;;;;;;;14.53;13.63;;;9.00;99.90;;;;;;5041402;28;20448;-45
2023/01/10 11:59:05;;;;;;;14.83;13.87;;;9.10;99.90;;;;;;5039930;28;20436;-44
2023/01/10 12:01:39;;;;;;;15.33;14.10;;;9.20;99.90;;;;;;5022831;28;20436;-44
2023/01/10 12:04:05;;;;;;;15.30;14.20;;;9.20;99.90;;;;;;5041162;28;20906;-45
2023/01/10 12:06:32;;;;;;;14.50;13.57;;;9.20;99.90;;;;;;5040999;28;20914;-45
2023/01/10 12:08:57;;;;;;;14.17;13.23;;;9.30;99.90;;;;;;5040309;28;20450;-47
2023/01/10 12:11:28;;;;;;;14.60;13.70;;;9.30;99.90;;;;;;5041043;28;20487;-47
2023/01/10 12:13:57;;;;;;;15.47;14.47;;;9.30;99.90;;;;;;5041014;28;20189;-48
2023/01/10 12:16:33;;;;;;;15.20;14.20;;;9.30;99.90;;;;;;5040823;28;20424;-45
2023/01/10 12:19:01;;;;;;;14.37;13.30;;;9.40;99.90;;;;;;5040233;28;20436;-47
2023/01/10 12:21:29;;;;;;;15.00;13.80;;;9.50;99.90;;;;;;5040154;28;20416;-47
2023/01/10 12:23:59;;;;;;;14.63;13.70;;;9.50;99.90;;;;;;5022442;28;20471;-46
2023/01/10 12:26:28;;;;;;;14.20;13.07;;;9.50;99.90;;;;;;5040577;28;20424;-48
2023/01/10 12:28:58;;;;;;;13.77;12.97;;;9.40;99.90;;;;;;5039834;28;20590;-48
2023/01/10 12:31:25;;;;;;;14.50;13.40;;;9.40;99.90;;;;;;5040574;28;20460;-46
2023/01/10 12:33:55;;;;;;;13.97;13.17;;;9.40;99.90;;;;;;5040448;28;20914;-47
2023/01/10 12:36:40;;;;;;;13.83;13.00;;;9.30;99.90;;;;;;5040946;28;20751;-45
2023/01/10 12:39:20;;;;;;;13.17;12.07;;;9.30;99.90;;;;;;5039678;28;20514;-47
2023/01/10 12:44:44;;;;;;;14.23;13.13;;;9.30;99.90;;;;;;5040244;28;20443;-47
2023/01/10 12:47:24;;;;;;;12.97;11.97;;;9.40;99.90;;;;;;5040518;28;20561;-49
2023/01/10 12:49:52;;;;;;;14.07;13.07;;;9.50;99.90;;;;;;5039672;28;20919;-49
2023/01/10 12:52:32;;;;;;;13.33;12.33;;;9.60;99.90;;;;;;5039875;28;20476;-48
2023/01/10 12:54:57;;;;;;;13.70;12.80;;;9.60;99.90;;;;;;5040184;28;20416;-46
2023/01/10 12:57:29;;;;;;;13.87;12.67;;;9.70;99.90;;;;;;5040418;28;20451;-49
2023/01/10 12:59:57;;;;;;;14.17;13.27;;;9.70;99.90;;;;;;5039540;28;20259;-45
2023/01/10 13:02:27;;;;;;;13.57;12.57;;;9.70;99.90;;;;;;5040541;28;20424;-46
2023/01/10 13:04:59;;;;;;;13.67;12.97;;;9.70;99.90;;;;;;5040465;28;20443;-50